sensor_id;sensor_type;location;lat;lon;timestamp;P1;durP1;ratioP1;P2;durP2;ratioP2
66402;SDS011;53212;52.112;5.144;2023-07-24T00:01:01;4.30;;;3.60;;
66402;SDS011;53212;52.112;5.144;2023-07-24T00:03:27;4.00;;;3.70;;
66402;SDS011;53212;52.112;5.144;2023-07-24T00:05:52;4.10;;;3.70;;
66402;SDS011;53212;52.112;5.144;2023-07-24T00:08:17;4.10;;;3.50;;
66402;SDS011;53212;52.112;5.144;2023-07-24T00:10:43;5.10;;;3.90;;
66402;SDS011;53212;52.112;5.144;2023-07-24T00:13:08;3.50;;;3.20;;
66402;SDS011;53212;52.112;5.144;2023-07-24T00:15:34;3.60;;;3.20;;
66402;SDS011;53212;52.112;5.144;2023-07-24T00:17:59;3.60;;;3.20;;
66402;SDS011;53212;52.112;5.144;2023-07-24T00:20:24;4.00;;;3.60;;
66402;SDS011;53212;52.112;5.144;2023-07-24T00:22:51;3.90;;;3.40;;
66402;SDS011;53212;52.112;5.144;2023-07-24T00:25:16;3.70;;;3.30;;
66402;SDS011;53212;52.112;5.144;2023-07-24T00:27:42;3.80;;;3.20;;
66402;SDS011;53212;52.112;5.144;2023-07-24T00:30:08;3.70;;;3.40;;
66402;SDS011;53212;52.112;5.144;2023-07-24T00:32:33;4.10;;;3.70;;
66402;SDS011;53212;52.112;5.144;2023-07-24T00:34:59;3.40;;;3.20;;
66402;SDS011;53212;52.112;5.144;2023-07-24T00:37:24;3.50;;;3.20;;
66402;SDS011;53212;52.112;5.144;2023-07-24T00:39:50;3.60;;;3.30;;
66402;SDS011;53212;52.112;5.144;2023-07-24T00:42:15;3.80;;;3.50;;
66402;SDS011;53212;52.112;5.144;2023-07-24T00:44:41;3.40;;;3.10;;
66402;SDS011;53212;52.112;5.144;2023-07-24T00:47:07;3.40;;;3.10;;
66402;SDS011;53212;52.112;5.144;2023-07-24T00:49:32;3.60;;;3.30;;
66402;SDS011;53212;52.112;5.144;2023-07-24T00:51:58;3.20;;;3.00;;
66402;SDS011;53212;52.112;5.144;2023-07-24T00:54:24;3.40;;;3.10;;
66402;SDS011;53212;52.112;5.144;2023-07-24T00:56:49;5.10;;;3.20;;
66402;SDS011;53212;52.112;5.144;2023-07-24T00:59:15;3.80;;;3.50;;
66402;SDS011;53212;52.112;5.144;2023-07-24T01:01:41;4.60;;;3.40;;
66402;SDS011;53212;52.112;5.144;2023-07-24T01:04:07;3.20;;;3.00;;
66402;SDS011;53212;52.112;5.144;2023-07-24T01:06:33;3.80;;;3.50;;
66402;SDS011;53212;52.112;5.144;2023-07-24T01:08:59;3.70;;;3.40;;
66402;SDS011;53212;52.112;5.144;2023-07-24T01:11:43;4.80;;;3.50;;
66402;SDS011;53212;52.112;5.144;2023-07-24T01:14:21;3.50;;;3.20;;
66402;SDS011;53212;52.112;5.144;2023-07-24T01:16:50;3.70;;;3.40;;
66402;SDS011;53212;52.112;5.144;2023-07-24T01:19:42;3.80;;;3.40;;
66402;SDS011;53212;52.112;5.144;2023-07-24T01:27:46;3.50;;;3.20;;
66402;SDS011;53212;52.112;5.144;2023-07-24T01:30:17;3.50;;;3.10;;
66402;SDS011;53212;52.112;5.144;2023-07-24T01:32:44;3.40;;;3.20;;
66402;SDS011;53212;52.112;5.144;2023-07-24T01:35:10;4.50;;;3.60;;
66402;SDS011;53212;52.112;5.144;2023-07-24T01:37:35;4.00;;;3.50;;
66402;SDS011;53212;52.112;5.144;2023-07-24T01:40:05;3.60;;;3.30;;
66402;SDS011;53212;52.112;5.144;2023-07-24T01:42:32;3.60;;;3.30;;
66402;SDS011;53212;52.112;5.144;2023-07-24T01:44:58;3.40;;;3.10;;
66402;SDS011;53212;52.112;5.144;2023-07-24T01:47:24;3.10;;;2.90;;
66402;SDS011;53212;52.112;5.144;2023-07-24T01:49:49;3.60;;;3.30;;
66402;SDS011;53212;52.112;5.144;2023-07-24T01:52:15;3.20;;;3.00;;
66402;SDS011;53212;52.112;5.144;2023-07-24T01:54:40;3.50;;;3.20;;
66402;SDS011;53212;52.112;5.144;2023-07-24T01:57:06;2.80;;;2.60;;
66402;SDS011;53212;52.112;5.144;2023-07-24T01:59:31;3.40;;;3.10;;
66402;SDS011;53212;52.112;5.144;2023-07-24T02:01:57;3.50;;;3.30;;
66402;SDS011;53212;52.112;5.144;2023-07-24T02:04:22;3.10;;;2.90;;
66402;SDS011;53212;52.112;5.144;2023-07-24T02:06:48;3.00;;;2.70;;
66402;SDS011;53212;52.112;5.144;2023-07-24T02:09:15;3.40;;;3.10;;
66402;SDS011;53212;52.112;5.144;2023-07-24T02:11:41;3.20;;;2.90;;
66402;SDS011;53212;52.112;5.144;2023-07-24T02:14:07;3.00;;;2.80;;
66402;SDS011;53212;52.112;5.144;2023-07-24T02:16:32;3.20;;;2.90;;
66402;SDS011;53212;52.112;5.144;2023-07-24T02:18:57;3.50;;;2.90;;
66402;SDS011;53212;52.112;5.144;2023-07-24T02:21:23;3.00;;;2.80;;
66402;SDS011;53212;52.112;5.144;2023-07-24T02:23:48;3.40;;;3.10;;
66402;SDS011;53212;52.112;5.144;2023-07-24T02:26:14;3.30;;;2.90;;
66402;SDS011;53212;52.112;5.144;2023-07-24T02:28:39;2.60;;;2.40;;
66402;SDS011;53212;52.112;5.144;2023-07-24T02:31:05;3.10;;;2.70;;
66402;SDS011;53212;52.112;5.144;2023-07-24T02:33:30;3.20;;;3.00;;
66402;SDS011;53212;52.112;5.144;2023-07-24T02:35:56;3.00;;;2.80;;
66402;SDS011;53212;52.112;5.144;2023-07-24T02:38:21;2.70;;;2.50;;
66402;SDS011;53212;52.112;5.144;2023-07-24T02:40:46;3.60;;;2.80;;
66402;SDS011;53212;52.112;5.144;2023-07-24T02:43:12;3.90;;;3.10;;
66402;SDS011;53212;52.112;5.144;2023-07-24T02:45:37;2.90;;;2.70;;
66402;SDS011;53212;52.112;5.144;2023-07-24T02:48:03;2.80;;;2.60;;
66402;SDS011;53212;52.112;5.144;2023-07-24T02:50:29;4.40;;;3.00;;
66402;SDS011;53212;52.112;5.144;2023-07-24T02:52:55;3.70;;;3.30;;
66402;SDS011;53212;52.112;5.144;2023-07-24T02:55:20;3.60;;;3.30;;
66402;SDS011;53212;52.112;5.144;2023-07-24T02:57:46;3.20;;;2.70;;
66402;SDS011;53212;52.112;5.144;2023-07-24T03:00:11;3.90;;;3.30;;
66402;SDS011;53212;52.112;5.144;2023-07-24T03:02:38;3.60;;;3.00;;
66402;SDS011;53212;52.112;5.144;2023-07-24T03:05:03;4.50;;;3.30;;
66402;SDS011;53212;52.112;5.144;2023-07-24T03:07:29;4.10;;;3.20;;
66402;SDS011;53212;52.112;5.144;2023-07-24T03:09:55;4.00;;;3.70;;
66402;SDS011;53212;52.112;5.144;2023-07-24T03:12:20;5.40;;;3.50;;
66402;SDS011;53212;52.112;5.144;2023-07-24T03:14:46;4.40;;;4.00;;
66402;SDS011;53212;52.112;5.144;2023-07-24T03:17:13;4.90;;;3.70;;
66402;SDS011;53212;52.112;5.144;2023-07-24T03:19:40;4.30;;;3.90;;
66402;SDS011;53212;52.112;5.144;2023-07-24T03:22:06;6.10;;;4.40;;
66402;SDS011;53212;52.112;5.144;2023-07-24T03:24:33;4.40;;;4.00;;
66402;SDS011;53212;52.112;5.144;2023-07-24T03:26:59;5.90;;;4.20;;
66402;SDS011;53212;52.112;5.144;2023-07-24T03:29:25;5.60;;;4.50;;
66402;SDS011;53212;52.112;5.144;2023-07-24T03:31:51;4.90;;;4.10;;
66402;SDS011;53212;52.112;5.144;2023-07-24T03:34:17;4.40;;;4.00;;
66402;SDS011;53212;52.112;5.144;2023-07-24T03:36:42;6.90;;;4.80;;
66402;SDS011;53212;52.112;5.144;2023-07-24T03:39:11;5.60;;;4.40;;
66402;SDS011;53212;52.112;5.144;2023-07-24T03:41:38;4.90;;;4.50;;
66402;SDS011;53212;52.112;5.144;2023-07-24T03:44:04;5.30;;;4.80;;
66402;SDS011;53212;52.112;5.144;2023-07-24T03:46:32;6.00;;;4.60;;
66402;SDS011;53212;52.112;5.144;2023-07-24T03:48:57;5.00;;;4.50;;
66402;SDS011;53212;52.112;5.144;2023-07-24T03:51:23;5.10;;;4.60;;
66402;SDS011;53212;52.112;5.144;2023-07-24T03:53:48;7.20;;;4.90;;
66402;SDS011;53212;52.112;5.144;2023-07-24T03:56:14;5.40;;;4.90;;
66402;SDS011;53212;52.112;5.144;2023-07-24T03:58:39;4.70;;;4.30;;
66402;SDS011;53212;52.112;5.144;2023-07-24T04:01:05;4.60;;;4.20;;
66402;SDS011;53212;52.112;5.144;2023-07-24T04:03:31;4.70;;;4.20;;
66402;SDS011;53212;52.112;5.144;2023-07-24T04:05:57;6.50;;;4.80;;
66402;SDS011;53212;52.112;5.144;2023-07-24T04:08:22;5.20;;;4.50;;
66402;SDS011;53212;52.112;5.144;2023-07-24T04:10:48;5.00;;;4.40;;
66402;SDS011;53212;52.112;5.144;2023-07-24T04:13:13;5.90;;;4.00;;
66402;SDS011;53212;52.112;5.144;2023-07-24T04:15:39;5.80;;;4.50;;
66402;SDS011;53212;52.112;5.144;2023-07-24T04:18:04;5.60;;;4.70;;
66402;SDS011;53212;52.112;5.144;2023-07-24T04:20:30;4.80;;;4.30;;
66402;SDS011;53212;52.112;5.144;2023-07-24T04:22:55;5.50;;;4.80;;
66402;SDS011;53212;52.112;5.144;2023-07-24T04:25:21;5.10;;;4.50;;
66402;SDS011;53212;52.112;5.144;2023-07-24T04:27:46;5.30;;;4.80;;
66402;SDS011;53212;52.112;5.144;2023-07-24T04:30:12;5.40;;;4.50;;
66402;SDS011;53212;52.112;5.144;2023-07-24T04:32:37;5.90;;;5.00;;
66402;SDS011;53212;52.112;5.144;2023-07-24T04:35:03;5.50;;;5.00;;
66402;SDS011;53212;52.112;5.144;2023-07-24T04:37:29;5.90;;;5.20;;
66402;SDS011;53212;52.112;5.144;2023-07-24T04:39:54;6.60;;;4.90;;
66402;SDS011;53212;52.112;5.144;2023-07-24T04:42:21;5.80;;;5.30;;
66402;SDS011;53212;52.112;5.144;2023-07-24T04:44:46;5.30;;;4.80;;
66402;SDS011;53212;52.112;5.144;2023-07-24T04:47:12;6.40;;;5.00;;
66402;SDS011;53212;52.112;5.144;2023-07-24T04:49:37;4.90;;;4.40;;
66402;SDS011;53212;52.112;5.144;2023-07-24T04:52:03;6.10;;;5.30;;
66402;SDS011;53212;52.112;5.144;2023-07-24T04:54:29;5.80;;;5.20;;
66402;SDS011;53212;52.112;5.144;2023-07-24T04:56:54;5.80;;;5.20;;
66402;SDS011;53212;52.112;5.144;2023-07-24T04:59:20;7.70;;;5.50;;
66402;SDS011;53212;52.112;5.144;2023-07-24T05:01:45;6.50;;;4.70;;
66402;SDS011;53212;52.112;5.144;2023-07-24T05:04:10;6.10;;;5.50;;
66402;SDS011;53212;52.112;5.144;2023-07-24T05:06:36;6.10;;;5.10;;
66402;SDS011;53212;52.112;5.144;2023-07-24T05:09:03;6.40;;;5.80;;
66402;SDS011;53212;52.112;5.144;2023-07-24T05:11:29;5.80;;;5.20;;
66402;SDS011;53212;52.112;5.144;2023-07-24T05:13:55;8.10;;;6.10;;
66402;SDS011;53212;52.112;5.144;2023-07-24T05:16:20;6.00;;;5.40;;
66402;SDS011;53212;52.112;5.144;2023-07-24T05:18:45;7.20;;;5.30;;
66402;SDS011;53212;52.112;5.144;2023-07-24T05:21:11;7.30;;;5.40;;
66402;SDS011;53212;52.112;5.144;2023-07-24T05:23:36;5.90;;;5.10;;
66402;SDS011;53212;52.112;5.144;2023-07-24T05:26:03;7.00;;;4.60;;
66402;SDS011;53212;52.112;5.144;2023-07-24T05:28:29;5.50;;;4.60;;
66402;SDS011;53212;52.112;5.144;2023-07-24T05:31:03;7.20;;;5.00;;
66402;SDS011;53212;52.112;5.144;2023-07-24T05:33:30;5.90;;;4.90;;
66402;SDS011;53212;52.112;5.144;2023-07-24T05:36:03;5.00;;;4.50;;
66402;SDS011;53212;52.112;5.144;2023-07-24T05:38:29;6.80;;;4.60;;
66402;SDS011;53212;52.112;5.144;2023-07-24T05:40:56;5.80;;;5.10;;
66402;SDS011;53212;52.112;5.144;2023-07-24T05:43:22;7.40;;;5.00;;
66402;SDS011;53212;52.112;5.144;2023-07-24T05:45:52;7.00;;;4.90;;
66402;SDS011;53212;52.112;5.144;2023-07-24T05:48:19;7.50;;;4.50;;
66402;SDS011;53212;52.112;5.144;2023-07-24T05:50:45;6.10;;;4.30;;
66402;SDS011;53212;52.112;5.144;2023-07-24T05:53:10;6.80;;;4.50;;
66402;SDS011;53212;52.112;5.144;2023-07-24T05:55:36;5.90;;;4.50;;
66402;SDS011;53212;52.112;5.144;2023-07-24T05:58:01;5.60;;;4.50;;
66402;SDS011;53212;52.112;5.144;2023-07-24T06:00:27;6.20;;;4.50;;
66402;SDS011;53212;52.112;5.144;2023-07-24T06:02:53;5.70;;;4.00;;
66402;SDS011;53212;52.112;5.144;2023-07-24T06:05:19;5.40;;;3.80;;
66402;SDS011;53212;52.112;5.144;2023-07-24T06:07:48;5.60;;;3.70;;
66402;SDS011;53212;52.112;5.144;2023-07-24T06:10:13;5.80;;;3.30;;
66402;SDS011;53212;52.112;5.144;2023-07-24T06:12:39;7.50;;;4.00;;
66402;SDS011;53212;52.112;5.144;2023-07-24T06:15:06;6.30;;;4.30;;
66402;SDS011;53212;52.112;5.144;2023-07-24T06:17:32;4.40;;;4.00;;
66402;SDS011;53212;52.112;5.144;2023-07-24T06:19:58;6.10;;;4.80;;
66402;SDS011;53212;52.112;5.144;2023-07-24T06:22:23;5.40;;;4.40;;
66402;SDS011;53212;52.112;5.144;2023-07-24T06:24:49;4.90;;;4.20;;
66402;SDS011;53212;52.112;5.144;2023-07-24T06:27:15;6.20;;;4.20;;
66402;SDS011;53212;52.112;5.144;2023-07-24T06:29:40;6.00;;;4.20;;
66402;SDS011;53212;52.112;5.144;2023-07-24T06:32:06;5.40;;;4.20;;
66402;SDS011;53212;52.112;5.144;2023-07-24T06:34:32;5.70;;;4.30;;
66402;SDS011;53212;52.112;5.144;2023-07-24T06:36:58;6.10;;;4.00;;
66402;SDS011;53212;52.112;5.144;2023-07-24T06:39:23;4.40;;;3.40;;
66402;SDS011;53212;52.112;5.144;2023-07-24T06:41:54;6.10;;;4.40;;
66402;SDS011;53212;52.112;5.144;2023-07-24T06:46:46;4.20;;;3.80;;
66402;SDS011;53212;52.112;5.144;2023-07-24T06:49:12;8.20;;;4.80;;
66402;SDS011;53212;52.112;5.144;2023-07-24T06:51:37;9.10;;;4.50;;
66402;SDS011;53212;52.112;5.144;2023-07-24T06:54:04;9.80;;;4.50;;
66402;SDS011;53212;52.112;5.144;2023-07-24T06:56:31;8.30;;;4.40;;
66402;SDS011;53212;52.112;5.144;2023-07-24T06:58:56;6.50;;;4.40;;
66402;SDS011;53212;52.112;5.144;2023-07-24T07:01:22;7.70;;;4.30;;
66402;SDS011;53212;52.112;5.144;2023-07-24T07:03:47;6.40;;;5.00;;
66402;SDS011;53212;52.112;5.144;2023-07-24T07:06:13;7.60;;;4.30;;
66402;SDS011;53212;52.112;5.144;2023-07-24T07:08:38;5.50;;;4.50;;
66402;SDS011;53212;52.112;5.144;2023-07-24T07:11:04;5.20;;;4.50;;
66402;SDS011;53212;52.112;5.144;2023-07-24T07:13:29;6.20;;;4.80;;
66402;SDS011;53212;52.112;5.144;2023-07-24T07:15:55;8.00;;;4.70;;
66402;SDS011;53212;52.112;5.144;2023-07-24T07:18:20;7.80;;;4.90;;
66402;SDS011;53212;52.112;5.144;2023-07-24T07:20:46;7.40;;;4.30;;
66402;SDS011;53212;52.112;5.144;2023-07-24T07:23:13;7.90;;;4.40;;
66402;SDS011;53212;52.112;5.144;2023-07-24T07:25:39;7.90;;;4.20;;
66402;SDS011;53212;52.112;5.144;2023-07-24T07:28:05;7.50;;;4.60;;
66402;SDS011;53212;52.112;5.144;2023-07-24T07:30:30;6.00;;;3.70;;
66402;SDS011;53212;52.112;5.144;2023-07-24T07:32:56;5.30;;;3.90;;
66402;SDS011;53212;52.112;5.144;2023-07-24T07:35:21;7.00;;;3.70;;
66402;SDS011;53212;52.112;5.144;2023-07-24T07:37:46;6.70;;;3.70;;
66402;SDS011;53212;52.112;5.144;2023-07-24T07:40:12;5.50;;;3.60;;
66402;SDS011;53212;52.112;5.144;2023-07-24T07:42:37;4.70;;;3.00;;
66402;SDS011;53212;52.112;5.144;2023-07-24T07:45:04;6.10;;;3.50;;
66402;SDS011;53212;52.112;5.144;2023-07-24T07:47:30;7.80;;;3.90;;
66402;SDS011;53212;52.112;5.144;2023-07-24T07:49:55;7.70;;;4.00;;
66402;SDS011;53212;52.112;5.144;2023-07-24T07:52:21;8.50;;;4.20;;
66402;SDS011;53212;52.112;5.144;2023-07-24T07:54:48;6.30;;;3.90;;
66402;SDS011;53212;52.112;5.144;2023-07-24T07:57:14;6.60;;;3.70;;
66402;SDS011;53212;52.112;5.144;2023-07-24T07:59:40;7.20;;;3.80;;
66402;SDS011;53212;52.112;5.144;2023-07-24T08:02:06;7.90;;;4.10;;
66402;SDS011;53212;52.112;5.144;2023-07-24T08:04:31;7.90;;;3.80;;
66402;SDS011;53212;52.112;5.144;2023-07-24T08:06:57;8.50;;;4.50;;
66402;SDS011;53212;52.112;5.144;2023-07-24T08:09:23;5.10;;;4.20;;
66402;SDS011;53212;52.112;5.144;2023-07-24T08:11:49;6.80;;;4.10;;
66402;SDS011;53212;52.112;5.144;2023-07-24T08:14:16;6.80;;;4.10;;
66402;SDS011;53212;52.112;5.144;2023-07-24T08:16:42;6.30;;;4.30;;
66402;SDS011;53212;52.112;5.144;2023-07-24T08:19:08;5.20;;;3.80;;
66402;SDS011;53212;52.112;5.144;2023-07-24T08:21:33;7.10;;;4.70;;
66402;SDS011;53212;52.112;5.144;2023-07-24T08:23:59;5.70;;;4.10;;
66402;SDS011;53212;52.112;5.144;2023-07-24T08:26:27;6.00;;;4.10;;
66402;SDS011;53212;52.112;5.144;2023-07-24T08:28:52;5.30;;;4.50;;
66402;SDS011;53212;52.112;5.144;2023-07-24T08:31:18;5.80;;;4.30;;
66402;SDS011;53212;52.112;5.144;2023-07-24T08:33:44;5.50;;;4.40;;
66402;SDS011;53212;52.112;5.144;2023-07-24T08:36:09;6.90;;;4.10;;
66402;SDS011;53212;52.112;5.144;2023-07-24T08:38:37;5.90;;;4.70;;
66402;SDS011;53212;52.112;5.144;2023-07-24T08:41:10;4.60;;;3.60;;
66402;SDS011;53212;52.112;5.144;2023-07-24T08:43:39;6.30;;;4.00;;
66402;SDS011;53212;52.112;5.144;2023-07-24T08:46:06;6.50;;;4.40;;
66402;SDS011;53212;52.112;5.144;2023-07-24T08:48:34;7.10;;;4.70;;
66402;SDS011;53212;52.112;5.144;2023-07-24T08:51:02;6.90;;;4.50;;
66402;SDS011;53212;52.112;5.144;2023-07-24T08:53:29;7.00;;;4.30;;
66402;SDS011;53212;52.112;5.144;2023-07-24T08:56:00;5.20;;;3.50;;
66402;SDS011;53212;52.112;5.144;2023-07-24T08:58:28;7.00;;;3.80;;
66402;SDS011;53212;52.112;5.144;2023-07-24T09:00:53;8.90;;;4.60;;
66402;SDS011;53212;52.112;5.144;2023-07-24T09:03:19;4.20;;;3.20;;
66402;SDS011;53212;52.112;5.144;2023-07-24T09:05:45;7.80;;;4.10;;
66402;SDS011;53212;52.112;5.144;2023-07-24T09:08:11;8.90;;;4.00;;
66402;SDS011;53212;52.112;5.144;2023-07-24T09:10:37;7.20;;;4.10;;
66402;SDS011;53212;52.112;5.144;2023-07-24T09:13:02;6.40;;;4.00;;
66402;SDS011;53212;52.112;5.144;2023-07-24T09:15:38;6.00;;;3.60;;
66402;SDS011;53212;52.112;5.144;2023-07-24T09:18:08;6.90;;;4.10;;
66402;SDS011;53212;52.112;5.144;2023-07-24T09:20:42;6.00;;;4.10;;
66402;SDS011;53212;52.112;5.144;2023-07-24T09:23:09;5.40;;;4.40;;
66402;SDS011;53212;52.112;5.144;2023-07-24T09:25:38;6.10;;;3.90;;
66402;SDS011;53212;52.112;5.144;2023-07-24T09:28:15;7.70;;;4.30;;
66402;SDS011;53212;52.112;5.144;2023-07-24T09:30:51;6.70;;;4.40;;
66402;SDS011;53212;52.112;5.144;2023-07-24T09:33:38;5.20;;;4.40;;
66402;SDS011;53212;52.112;5.144;2023-07-24T09:36:09;7.10;;;4.60;;
66402;SDS011;53212;52.112;5.144;2023-07-24T09:38:36;5.90;;;3.90;;
66402;SDS011;53212;52.112;5.144;2023-07-24T09:41:03;5.40;;;3.90;;
66402;SDS011;53212;52.112;5.144;2023-07-24T09:43:29;5.70;;;4.00;;
66402;SDS011;53212;52.112;5.144;2023-07-24T09:45:56;5.90;;;4.20;;
66402;SDS011;53212;52.112;5.144;2023-07-24T09:48:25;5.90;;;4.30;;
66402;SDS011;53212;52.112;5.144;2023-07-24T09:50:56;4.80;;;4.20;;
66402;SDS011;53212;52.112;5.144;2023-07-24T09:53:55;6.30;;;4.10;;
66402;SDS011;53212;52.112;5.144;2023-07-24T09:56:20;7.50;;;4.50;;
66402;SDS011;53212;52.112;5.144;2023-07-24T09:58:47;5.30;;;4.00;;
66402;SDS011;53212;52.112;5.144;2023-07-24T10:01:14;5.50;;;3.80;;
66402;SDS011;53212;52.112;5.144;2023-07-24T10:03:46;5.20;;;3.80;;
66402;SDS011;53212;52.112;5.144;2023-07-24T10:06:12;8.00;;;3.60;;
66402;SDS011;53212;52.112;5.144;2023-07-24T10:08:45;4.80;;;3.80;;
66402;SDS011;53212;52.112;5.144;2023-07-24T10:11:12;7.80;;;3.90;;
66402;SDS011;53212;52.112;5.144;2023-07-24T10:13:39;7.10;;;4.10;;
66402;SDS011;53212;52.112;5.144;2023-07-24T10:16:06;5.80;;;4.00;;
66402;SDS011;53212;52.112;5.144;2023-07-24T10:18:34;6.00;;;4.30;;
66402;SDS011;53212;52.112;5.144;2023-07-24T10:21:08;6.70;;;4.20;;
66402;SDS011;53212;52.112;5.144;2023-07-24T10:23:44;7.90;;;4.70;;
66402;SDS011;53212;52.112;5.144;2023-07-24T10:26:16;6.80;;;3.80;;
66402;SDS011;53212;52.112;5.144;2023-07-24T10:28:41;6.70;;;4.50;;
66402;SDS011;53212;52.112;5.144;2023-07-24T10:31:21;10.50;;;4.90;;
66402;SDS011;53212;52.112;5.144;2023-07-24T10:33:48;5.40;;;4.20;;
66402;SDS011;53212;52.112;5.144;2023-07-24T10:36:17;6.70;;;4.50;;
66402;SDS011;53212;52.112;5.144;2023-07-24T10:38:45;5.50;;;4.30;;
66402;SDS011;53212;52.112;5.144;2023-07-24T10:41:12;5.40;;;3.90;;
66402;SDS011;53212;52.112;5.144;2023-07-24T10:43:59;6.20;;;4.50;;
66402;SDS011;53212;52.112;5.144;2023-07-24T10:46:38;7.40;;;4.30;;
66402;SDS011;53212;52.112;5.144;2023-07-24T10:49:06;4.40;;;3.90;;
66402;SDS011;53212;52.112;5.144;2023-07-24T10:51:33;6.80;;;4.60;;
66402;SDS011;53212;52.112;5.144;2023-07-24T10:54:05;5.50;;;3.80;;
66402;SDS011;53212;52.112;5.144;2023-07-24T10:56:31;5.30;;;4.00;;
66402;SDS011;53212;52.112;5.144;2023-07-24T10:59:02;6.40;;;4.00;;
66402;SDS011;53212;52.112;5.144;2023-07-24T11:01:30;6.20;;;4.20;;
66402;SDS011;53212;52.112;5.144;2023-07-24T11:03:56;4.60;;;4.00;;
66402;SDS011;53212;52.112;5.144;2023-07-24T11:06:22;6.30;;;4.00;;
66402;SDS011;53212;52.112;5.144;2023-07-24T11:08:55;5.50;;;3.50;;
66402;SDS011;53212;52.112;5.144;2023-07-24T11:11:27;5.10;;;3.60;;
66402;SDS011;53212;52.112;5.144;2023-07-24T11:13:53;10.10;;;3.80;;
66402;SDS011;53212;52.112;5.144;2023-07-24T11:16:19;8.50;;;4.30;;
66402;SDS011;53212;52.112;5.144;2023-07-24T11:18:46;3.90;;;3.50;;
66402;SDS011;53212;52.112;5.144;2023-07-24T11:21:13;4.40;;;3.60;;
66402;SDS011;53212;52.112;5.144;2023-07-24T11:23:49;7.10;;;3.90;;
66402;SDS011;53212;52.112;5.144;2023-07-24T11:26:18;5.50;;;4.20;;
66402;SDS011;53212;52.112;5.144;2023-07-24T11:28:44;8.80;;;4.00;;
66402;SDS011;53212;52.112;5.144;2023-07-24T11:31:09;5.80;;;4.40;;
66402;SDS011;53212;52.112;5.144;2023-07-24T11:33:36;5.30;;;4.00;;
66402;SDS011;53212;52.112;5.144;2023-07-24T11:36:03;5.50;;;4.10;;
66402;SDS011;53212;52.112;5.144;2023-07-24T11:38:29;5.40;;;3.80;;
66402;SDS011;53212;52.112;5.144;2023-07-24T11:40:54;3.80;;;3.40;;
66402;SDS011;53212;52.112;5.144;2023-07-24T11:43:22;9.50;;;3.60;;
66402;SDS011;53212;52.112;5.144;2023-07-24T11:45:50;5.80;;;3.30;;
66402;SDS011;53212;52.112;5.144;2023-07-24T11:48:18;3.70;;;3.30;;
66402;SDS011;53212;52.112;5.144;2023-07-24T11:50:45;4.30;;;2.90;;
66402;SDS011;53212;52.112;5.144;2023-07-24T11:53:26;6.00;;;3.70;;
66402;SDS011;53212;52.112;5.144;2023-07-24T11:55:54;5.30;;;3.20;;
66402;SDS011;53212;52.112;5.144;2023-07-24T11:58:27;3.50;;;3.20;;
66402;SDS011;53212;52.112;5.144;2023-07-24T12:00:53;8.50;;;5.00;;
66402;SDS011;53212;52.112;5.144;2023-07-24T12:03:27;9.70;;;4.30;;
66402;SDS011;53212;52.112;5.144;2023-07-24T12:05:54;4.80;;;3.60;;
66402;SDS011;53212;52.112;5.144;2023-07-24T12:08:20;6.20;;;4.10;;
66402;SDS011;53212;52.112;5.144;2023-07-24T12:10:54;5.20;;;3.80;;
66402;SDS011;53212;52.112;5.144;2023-07-24T12:13:19;5.70;;;4.40;;
66402;SDS011;53212;52.112;5.144;2023-07-24T12:15:44;6.40;;;4.00;;
66402;SDS011;53212;52.112;5.144;2023-07-24T12:18:10;7.90;;;5.10;;
66402;SDS011;53212;52.112;5.144;2023-07-24T12:20:35;10.50;;;5.10;;
66402;SDS011;53212;52.112;5.144;2023-07-24T12:23:01;10.10;;;5.30;;
66402;SDS011;53212;52.112;5.144;2023-07-24T12:25:26;18.40;;;7.80;;
66402;SDS011;53212;52.112;5.144;2023-07-24T12:27:52;10.60;;;6.10;;
66402;SDS011;53212;52.112;5.144;2023-07-24T12:30:18;10.70;;;7.50;;
66402;SDS011;53212;52.112;5.144;2023-07-24T12:32:45;8.10;;;6.50;;
66402;SDS011;53212;52.112;5.144;2023-07-24T12:35:10;7.20;;;6.60;;
66402;SDS011;53212;52.112;5.144;2023-07-24T12:37:36;9.10;;;7.00;;
66402;SDS011;53212;52.112;5.144;2023-07-24T12:40:04;7.90;;;6.10;;
66402;SDS011;53212;52.112;5.144;2023-07-24T12:42:30;10.20;;;6.60;;
66402;SDS011;53212;52.112;5.144;2023-07-24T12:44:56;12.20;;;6.20;;
66402;SDS011;53212;52.112;5.144;2023-07-24T12:47:23;10.50;;;7.00;;
66402;SDS011;53212;52.112;5.144;2023-07-24T12:49:48;7.00;;;6.10;;
66402;SDS011;53212;52.112;5.144;2023-07-24T12:52:14;8.20;;;7.10;;
66402;SDS011;53212;52.112;5.144;2023-07-24T12:54:39;11.30;;;7.10;;
66402;SDS011;53212;52.112;5.144;2023-07-24T12:57:05;8.40;;;6.60;;
66402;SDS011;53212;52.112;5.144;2023-07-24T12:59:30;4.70;;;4.20;;
66402;SDS011;53212;52.112;5.144;2023-07-24T13:01:56;4.30;;;3.90;;
66402;SDS011;53212;52.112;5.144;2023-07-24T13:04:23;3.30;;;3.10;;
66402;SDS011;53212;52.112;5.144;2023-07-24T13:06:48;4.00;;;3.00;;
66402;SDS011;53212;52.112;5.144;2023-07-24T13:09:14;2.80;;;2.60;;
66402;SDS011;53212;52.112;5.144;2023-07-24T13:11:39;2.60;;;2.40;;
66402;SDS011;53212;52.112;5.144;2023-07-24T13:14:05;2.90;;;2.70;;
66402;SDS011;53212;52.112;5.144;2023-07-24T13:16:31;3.50;;;2.70;;
66402;SDS011;53212;52.112;5.144;2023-07-24T13:18:57;3.60;;;2.90;;
66402;SDS011;53212;52.112;5.144;2023-07-24T13:21:23;2.90;;;2.70;;
66402;SDS011;53212;52.112;5.144;2023-07-24T13:23:48;2.80;;;2.60;;
66402;SDS011;53212;52.112;5.144;2023-07-24T13:26:14;2.30;;;2.10;;
66402;SDS011;53212;52.112;5.144;2023-07-24T13:28:40;2.30;;;2.20;;
66402;SDS011;53212;52.112;5.144;2023-07-24T13:31:17;3.00;;;2.00;;
66402;SDS011;53212;52.112;5.144;2023-07-24T13:33:44;1.90;;;1.80;;
66402;SDS011;53212;52.112;5.144;2023-07-24T13:36:10;3.70;;;2.20;;
66402;SDS011;53212;52.112;5.144;2023-07-24T13:38:35;3.50;;;2.10;;
66402;SDS011;53212;52.112;5.144;2023-07-24T13:41:01;2.10;;;1.80;;
66402;SDS011;53212;52.112;5.144;2023-07-24T13:43:28;4.50;;;2.00;;
66402;SDS011;53212;52.112;5.144;2023-07-24T13:45:54;1.90;;;1.80;;
66402;SDS011;53212;52.112;5.144;2023-07-24T13:48:20;2.80;;;1.80;;
66402;SDS011;53212;52.112;5.144;2023-07-24T13:50:46;2.80;;;1.80;;
66402;SDS011;53212;52.112;5.144;2023-07-24T13:53:11;2.60;;;1.70;;
66402;SDS011;53212;52.112;5.144;2023-07-24T13:55:37;1.90;;;1.60;;
66402;SDS011;53212;52.112;5.144;2023-07-24T13:58:03;2.40;;;1.70;;
66402;SDS011;53212;52.112;5.144;2023-07-24T14:00:28;3.90;;;1.70;;
66402;SDS011;53212;52.112;5.144;2023-07-24T14:02:54;2.60;;;1.60;;
66402;SDS011;53212;52.112;5.144;2023-07-24T14:05:19;3.20;;;1.50;;
66402;SDS011;53212;52.112;5.144;2023-07-24T14:07:45;3.10;;;1.70;;
66402;SDS011;53212;52.112;5.144;2023-07-24T14:10:10;3.00;;;1.70;;
66402;SDS011;53212;52.112;5.144;2023-07-24T14:12:36;2.50;;;1.70;;
66402;SDS011;53212;52.112;5.144;2023-07-24T14:15:01;2.40;;;1.60;;
66402;SDS011;53212;52.112;5.144;2023-07-24T14:17:27;1.90;;;1.30;;
66402;SDS011;53212;52.112;5.144;2023-07-24T14:19:53;2.60;;;1.40;;
66402;SDS011;53212;52.112;5.144;2023-07-24T14:22:19;3.40;;;1.30;;
66402;SDS011;53212;52.112;5.144;2023-07-24T14:24:44;2.90;;;1.60;;
66402;SDS011;53212;52.112;5.144;2023-07-24T14:27:11;4.40;;;1.70;;
66402;SDS011;53212;52.112;5.144;2023-07-24T14:29:36;4.40;;;1.80;;
66402;SDS011;53212;52.112;5.144;2023-07-24T14:32:02;3.70;;;1.50;;
66402;SDS011;53212;52.112;5.144;2023-07-24T14:34:28;3.30;;;1.70;;
66402;SDS011;53212;52.112;5.144;2023-07-24T14:36:53;4.30;;;1.70;;
66402;SDS011;53212;52.112;5.144;2023-07-24T14:39:18;2.70;;;1.80;;
66402;SDS011;53212;52.112;5.144;2023-07-24T14:41:44;2.40;;;1.50;;
66402;SDS011;53212;52.112;5.144;2023-07-24T14:44:10;4.70;;;1.70;;
66402;SDS011;53212;52.112;5.144;2023-07-24T14:46:36;2.90;;;1.50;;
66402;SDS011;53212;52.112;5.144;2023-07-24T14:49:04;3.10;;;1.60;;
66402;SDS011;53212;52.112;5.144;2023-07-24T14:51:29;3.40;;;1.60;;
66402;SDS011;53212;52.112;5.144;2023-07-24T14:53:55;2.50;;;1.50;;